createdAt,value
2022-09-10T00:09:36.995Z,13.015678516111759
2022-09-10T00:24:52.956Z,13.161258438553327
2022-09-10T00:40:08.967Z,13.331064834744348
2022-09-10T00:55:26.873Z,13.518778799056408
2022-09-10T01:10:43.873Z,13.862844447362816
2022-09-10T01:26:00.813Z,14.053993495473911
2022-09-10T01:41:16.823Z,13.639355352841442
2022-09-10T01:56:33.756Z,13.348030400867918
2022-09-10T02:11:49.759Z,13.72639809421935
2022-09-10T02:27:05.697Z,13.882709813753717
2022-09-10T02:42:22.695Z,14.010457576264864
2022-09-10T02:57:40.668Z,13.972757120901662
2022-09-10T03:12:57.647Z,13.952342980871855
2022-09-10T03:28:13.590Z,13.647179668101682
2022-09-10T03:43:29.592Z,13.877967286795286
2022-09-10T03:58:46.562Z,13.92440515926775
2022-09-10T04:14:02.530Z,13.94414765676119
2022-09-10T04:29:18.469Z,13.617647424379559
2022-09-10T04:44:35.473Z,13.618543277447447
2022-09-10T04:59:53.439Z,13.648054755335842
2022-09-10T05:15:10.383Z,13.716088023883321
2022-09-10T05:30:26.461Z,13.74233353087207
2022-09-10T05:45:42.381Z,13.855306259457965
2022-09-10T06:00:59.341Z,14.019761327637774
2022-09-10T06:16:15.292Z,14.062398090959421
2022-09-10T06:31:32.348Z,13.538596679754658
2022-09-10T06:47:45.927Z,13.197040044201703
2022-09-10T07:02:06.205Z,13.644769950142463
2022-09-10T07:17:22.155Z,13.550235683007058
2022-09-10T07:32:38.119Z,13.794119704139
2022-09-10T07:47:54.094Z,13.780853873174953
2022-09-10T08:03:11.063Z,13.691703139594148
2022-09-10T08:18:27.036Z,13.76137910152996
2022-09-10T08:33:43.999Z,13.777060033153521
2022-09-10T08:49:00.973Z,13.620757727111393
2022-09-10T09:04:17.933Z,13.613476797315638
2022-09-10T09:19:33.903Z,13.217983407719608
2022-09-10T09:34:49.865Z,13.329893259960718
2022-09-10T09:50:05.838Z,12.66033487496642
2022-09-10T10:05:22.804Z,11.957474501304302
2022-09-10T10:20:39.890Z,11.579719481915477
2022-09-10T10:35:56.746Z,10.662652807982086
2022-09-10T10:51:13.807Z,10.083397496117302
2022-09-10T11:06:30.670Z,9.495990492013481
2022-09-10T11:21:46.749Z,9.806368987873395
2022-09-10T11:37:02.640Z,9.45389035595524
2022-09-10T11:52:18.675Z,9.70974666740773
2022-09-10T12:07:35.645Z,9.041700962007111
2022-09-10T12:22:52.625Z,8.381298862645918
2022-09-10T12:38:09.599Z,9.120699422141161
2022-09-10T12:54:13.891Z,8.994971700683655
2022-09-10T13:08:41.455Z,9.275328316928334
2022-09-10T13:23:58.483Z,9.164585983417714
2022-09-10T13:39:14.457Z,9.489639451985093
2022-09-10T13:54:32.743Z,10.103050307746374
2022-09-10T14:09:44.390Z,10.345731069442458
2022-09-10T14:25:01.350Z,10.067831598845313
2022-09-10T14:40:17.395Z,10.131135370978097
2022-09-10T14:55:34.193Z,10.214221680581783
2022-09-10T15:10:50.267Z,10.237341798536633
2022-09-10T15:26:06.128Z,10.078030008568543
2022-09-10T15:41:22.186Z,9.699958936160947
2022-09-10T15:56:40.058Z,9.339185037855874
2022-09-10T16:11:57.132Z,9.334404496223431
2022-09-10T16:27:13.996Z,9.192729695043443
2022-09-10T16:42:30.003Z,9.077733520919528
2022-09-10T16:57:46.937Z,8.919293425700262
2022-09-10T17:13:03.004Z,8.787818781657121
2022-09-10T17:28:18.880Z,8.906781734391473
2022-09-10T17:43:36.007Z,8.990105883431866
2022-09-10T17:58:53.808Z,8.92467473004034
2022-09-10T18:14:10.887Z,8.874997113488536
2022-09-10T18:29:26.739Z,8.940896555671253
2022-09-10T18:44:42.825Z,9.112532986152404
2022-09-10T18:59:59.678Z,9.149608170255979
2022-09-10T19:15:15.649Z,9.722609926649447
2022-09-10T19:30:35.690Z,9.650096563293895
2022-09-10T19:45:48.591Z,10.253577309297665
2022-09-10T20:01:06.708Z,10.530527899332451
2022-09-10T20:16:23.619Z,10.646924041081487
2022-09-10T20:31:39.770Z,10.828647553513452
2022-09-10T20:46:55.469Z,11.143852205086619
2022-09-10T21:02:12.575Z,11.412961593550774
2022-09-10T21:17:28.408Z,11.677321072564599
2022-09-10T21:32:44.378Z,11.540168219275774
2022-09-10T21:48:01.357Z,11.842320181199135
2022-09-10T22:03:19.323Z,11.96019923867761
2022-09-10T22:18:35.301Z,11.956126968752997
2022-09-10T22:33:51.265Z,11.5638927337603
2022-09-10T22:49:07.244Z,11.495949103122284
2022-09-10T23:04:24.213Z,11.442716373163103
2022-09-10T23:19:40.186Z,11.556130930255105
2022-09-10T23:34:57.158Z,11.521687979375825
2022-09-10T23:50:14.230Z,11.590968970181189
